createdAt,value
2019-03-01T00:01:58.884Z,40.17
2019-03-01T00:05:01.491Z,37.43
2019-03-01T00:07:55.920Z,39.50
2019-03-01T00:11:14.686Z,39.70
2019-03-01T00:14:18.903Z,40.13
2019-03-01T00:20:51.881Z,41.57
2019-03-01T00:30:42.279Z,36.83
2019-03-01T00:34:06.547Z,30.50
2019-03-01T00:37:21.227Z,33.70
2019-03-01T00:40:20.945Z,33.63
2019-03-01T00:43:39.173Z,32.73
2019-03-01T00:46:17.214Z,34.83
2019-03-01T00:48:48.787Z,31.73
2019-03-01T00:51:25.538Z,36.40
2019-03-01T00:54:34.480Z,35.43
2019-03-01T00:57:02.936Z,27.70
2019-03-01T00:59:52.328Z,23.63
2019-03-01T01:02:40.351Z,23.13
2019-03-01T01:05:17.882Z,22.53
2019-03-01T01:08:00.205Z,20.77
2019-03-01T01:11:01.908Z,20.47
2019-03-01T01:16:48.119Z,19.20
2019-03-01T01:22:56.269Z,18.27
2019-03-01T01:25:33.799Z,18.90
2019-03-01T01:28:11.575Z,19.23
2019-03-01T01:30:45.527Z,20.80
2019-03-01T01:33:22.679Z,18.53
2019-03-01T01:35:54.177Z,18.27
2019-03-01T01:38:29.955Z,18.17
2019-03-01T01:41:06.863Z,19.50
2019-03-01T01:44:11.978Z,18.93
2019-03-01T01:46:53.406Z,18.30
2019-03-01T01:50:06.726Z,19.73
2019-03-01T01:52:35.449Z,18.87
2019-03-01T01:55:20.881Z,17.80
2019-03-01T01:58:13.370Z,18.67
2019-03-01T02:00:52.945Z,18.63
2019-03-01T02:03:21.404Z,21.57
2019-03-01T02:05:49.369Z,20.23
2019-03-01T02:08:17.704Z,21.03
2019-03-01T02:10:45.639Z,23.93
2019-03-01T02:13:13.641Z,23.30
2019-03-01T02:15:41.542Z,25.50
2019-03-01T02:18:09.813Z,25.00
2019-03-01T02:20:38.735Z,22.53
2019-03-01T02:23:07.362Z,25.47
2019-03-01T02:25:37.017Z,23.13
2019-03-01T02:28:05.692Z,24.37
2019-03-01T02:30:34.007Z,23.73
2019-03-01T02:33:03.855Z,22.50
2019-03-01T02:35:32.914Z,21.87
2019-03-01T02:38:00.901Z,22.17
2019-03-01T02:40:29.195Z,22.30
2019-03-01T02:42:57.186Z,21.63
2019-03-01T02:45:25.354Z,21.33
2019-03-01T02:47:53.317Z,22.40
2019-03-01T02:50:21.505Z,23.60
2019-03-01T02:56:17.157Z,23.60
2019-03-01T02:58:44.998Z,22.43
2019-03-01T03:01:13.330Z,22.07
2019-03-01T03:03:41.626Z,23.27
2019-03-01T03:06:16.379Z,22.43
2019-03-01T03:08:45.908Z,21.03
2019-03-01T03:11:14.392Z,24.43
2019-03-01T03:13:43.392Z,25.43
2019-03-01T03:16:11.672Z,27.47
2019-03-01T03:18:39.703Z,27.20
2019-03-01T03:21:08.017Z,28.67
2019-03-01T03:23:36.363Z,27.80
2019-03-01T03:26:04.237Z,28.10
2019-03-01T03:28:32.475Z,27.00
2019-03-01T03:31:00.701Z,25.57
2019-03-01T03:33:28.597Z,28.67
2019-03-01T03:35:57.095Z,25.93
2019-03-01T03:38:25.522Z,27.63
2019-03-01T03:40:54.264Z,27.87
2019-03-01T03:43:22.949Z,27.50
2019-03-01T03:45:51.020Z,27.10
2019-03-01T03:48:19.358Z,28.53
2019-03-01T03:50:47.620Z,26.10
2019-03-01T03:53:15.940Z,24.63
2019-03-01T03:55:44.056Z,23.90
2019-03-01T03:58:11.866Z,23.87
2019-03-01T04:00:40.037Z,23.63
2019-03-01T04:03:08.513Z,23.73
2019-03-01T04:05:36.552Z,25.00
2019-03-01T04:08:04.737Z,26.23
2019-03-01T04:10:33.176Z,24.87
2019-03-01T04:13:02.130Z,24.47
2019-03-01T04:15:30.691Z,24.53
2019-03-01T04:17:58.734Z,24.63
2019-03-01T04:20:26.936Z,25.60
2019-03-01T04:22:54.936Z,26.57
2019-03-01T04:25:23.469Z,25.13
2019-03-01T04:27:53.336Z,25.33
2019-03-01T04:30:21.581Z,24.10
2019-03-01T04:32:49.901Z,25.63
2019-03-01T04:35:18.375Z,25.90
2019-03-01T04:37:46.574Z,25.70
2019-03-01T04:40:18.120Z,25.93
2019-03-01T04:42:46.316Z,26.87
2019-03-01T04:45:15.053Z,24.10
2019-03-01T04:47:43.238Z,26.63
2019-03-01T04:50:11.552Z,26.80
2019-03-01T04:52:40.062Z,26.47
2019-03-01T04:55:17.113Z,27.33
2019-03-01T04:57:45.564Z,28.53
2019-03-01T05:00:18.202Z,27.53
2019-03-01T05:02:46.497Z,27.90
2019-03-01T05:05:17.805Z,26.93
2019-03-01T05:07:46.587Z,27.93
2019-03-01T05:10:14.778Z,30.33
2019-03-01T05:12:43.443Z,28.10
2019-03-01T05:15:14.638Z,28.50
2019-03-01T05:17:42.966Z,31.00
2019-03-01T05:20:11.489Z,28.00
2019-03-01T05:22:39.766Z,30.27
2019-03-01T05:25:08.396Z,28.97
2019-03-01T05:27:36.332Z,27.63
2019-03-01T05:30:08.394Z,28.87
2019-03-01T05:32:37.086Z,29.87
2019-03-01T05:35:05.818Z,27.40
2019-03-01T05:37:33.940Z,27.83
2019-03-01T05:40:43.522Z,29.00
2019-03-01T05:43:12.300Z,27.93
2019-03-01T05:45:42.437Z,27.83
2019-03-01T05:48:13.261Z,25.80
2019-03-01T05:50:42.183Z,26.53
2019-03-01T05:53:10.693Z,24.63
2019-03-01T05:55:43.344Z,24.53
2019-03-01T05:58:33.311Z,24.77
2019-03-01T06:01:06.412Z,25.57
2019-03-01T06:04:08.531Z,23.73
2019-03-01T06:07:21.338Z,21.83
2019-03-01T06:09:59.551Z,23.93
2019-03-01T06:13:01.727Z,25.87
2019-03-01T06:15:53.702Z,23.67
2019-03-01T06:19:14.832Z,24.07
2019-03-01T06:22:32.266Z,24.40
2019-03-01T06:29:02.918Z,23.13
2019-03-01T06:31:59.521Z,22.47
2019-03-01T06:34:59.969Z,22.03
2019-03-01T06:38:39.873Z,23.03
2019-03-01T06:41:45.788Z,20.20
2019-03-01T06:44:28.922Z,21.30
2019-03-01T06:47:23.313Z,20.50
2019-03-01T06:50:16.147Z,19.70
2019-03-01T06:52:48.124Z,18.70
2019-03-01T06:55:41.704Z,14.97
2019-03-01T06:58:13.769Z,11.67
2019-03-01T07:00:50.275Z,11.53
2019-03-01T07:03:17.399Z,11.50
2019-03-01T07:05:48.933Z,10.90
2019-03-01T07:08:25.491Z,13.07
2019-03-01T07:10:57.971Z,13.03
2019-03-01T07:13:32.749Z,13.77
2019-03-01T07:16:04.082Z,13.10
2019-03-01T07:18:35.084Z,11.73
2019-03-01T07:21:04.227Z,12.10
2019-03-01T07:23:36.994Z,12.50
2019-03-01T07:26:06.336Z,12.03
2019-03-01T07:28:34.616Z,11.37
2019-03-01T07:31:03.789Z,10.47
2019-03-01T07:33:32.905Z,10.17
2019-03-01T07:36:03.823Z,10.10
2019-03-01T07:38:33.561Z,8.87
2019-03-01T07:41:04.767Z,7.90
2019-03-01T07:43:34.161Z,6.70
2019-03-01T07:46:05.238Z,6.67
2019-03-01T07:48:34.173Z,6.50
2019-03-01T07:51:04.924Z,6.17
2019-03-01T07:53:36.110Z,6.53
2019-03-01T07:56:05.307Z,5.43
2019-03-01T07:58:42.622Z,6.20
2019-03-01T08:01:09.856Z,5.43
2019-03-01T08:03:40.335Z,4.57
2019-03-01T08:06:13.161Z,4.77
2019-03-01T08:08:40.085Z,3.40
2019-03-01T08:11:13.731Z,3.73
2019-03-01T08:13:49.381Z,3.80
2019-03-01T08:16:20.117Z,3.57
2019-03-01T08:18:47.787Z,3.90
2019-03-01T08:21:18.787Z,4.30
2019-03-01T08:23:47.010Z,4.33
2019-03-01T08:26:15.161Z,6.10
2019-03-01T08:28:44.155Z,6.17
2019-03-01T08:31:12.953Z,5.67
2019-03-01T08:33:43.605Z,5.10
2019-03-01T08:36:13.096Z,5.00
2019-03-01T08:38:43.729Z,5.50
2019-03-01T08:41:13.562Z,4.57
2019-03-01T08:43:48.152Z,4.50
2019-03-01T08:46:19.219Z,5.00
2019-03-01T08:48:47.878Z,4.87
2019-03-01T08:51:16.907Z,5.27
2019-03-01T08:53:48.255Z,5.60
2019-03-01T08:56:15.879Z,4.33
2019-03-01T08:58:44.332Z,4.50
2019-03-01T09:01:17.045Z,5.07
2019-03-01T09:03:50.156Z,4.57
2019-03-01T09:06:19.464Z,4.10
2019-03-01T09:08:48.361Z,3.67
2019-03-01T09:11:16.980Z,3.80
2019-03-01T09:13:49.598Z,3.50
2019-03-01T09:16:18.144Z,3.23
2019-03-01T09:18:49.861Z,3.33
2019-03-01T09:21:17.001Z,3.17
2019-03-01T09:23:47.994Z,3.50
2019-03-01T09:26:25.826Z,2.83
2019-03-01T09:28:54.178Z,3.13
2019-03-01T09:31:27.662Z,3.67
2019-03-01T09:33:57.647Z,3.30
2019-03-01T09:36:33.047Z,3.03
2019-03-01T09:39:18.005Z,2.73
2019-03-01T09:41:46.247Z,2.87
2019-03-01T09:44:14.745Z,3.10
2019-03-01T09:46:46.411Z,2.60
2019-03-01T09:49:15.109Z,2.40
2019-03-01T09:51:47.432Z,2.33
2019-03-01T09:54:17.591Z,3.60
2019-03-01T09:56:46.952Z,3.23
2019-03-01T09:59:23.112Z,2.70
2019-03-01T10:01:56.736Z,2.93
2019-03-01T10:07:45.169Z,2.20
2019-03-01T10:10:16.775Z,2.70
2019-03-01T10:12:45.458Z,3.30
2019-03-01T10:15:15.887Z,2.50
2019-03-01T10:17:47.867Z,2.93
2019-03-01T10:20:18.546Z,2.77
2019-03-01T10:22:48.908Z,2.83
2019-03-01T10:28:34.599Z,2.73
2019-03-01T10:31:08.640Z,2.73
2019-03-01T10:33:37.739Z,2.50
2019-03-01T10:36:16.921Z,2.57
2019-03-01T10:38:46.250Z,2.20
2019-03-01T10:41:15.376Z,2.47
2019-03-01T10:43:46.693Z,1.93
2019-03-01T10:46:19.007Z,2.40
2019-03-01T10:48:52.110Z,2.27
2019-03-01T10:51:29.106Z,2.33
2019-03-01T10:54:01.065Z,2.63
2019-03-01T10:56:38.452Z,2.23
2019-03-01T10:59:09.356Z,2.20
2019-03-01T11:01:38.698Z,2.03
2019-03-01T11:04:07.642Z,2.10
2019-03-01T11:06:36.719Z,2.17
2019-03-01T11:09:07.849Z,2.07
2019-03-01T11:11:37.712Z,2.10
2019-03-01T11:14:08.113Z,1.90
2019-03-01T11:16:36.685Z,2.60
2019-03-01T11:19:06.324Z,2.60
2019-03-01T11:21:34.871Z,2.37
2019-03-01T11:24:29.055Z,2.03
2019-03-01T11:26:58.529Z,2.00
2019-03-01T11:29:29.005Z,3.07
2019-03-01T11:31:58.562Z,2.07
2019-03-01T11:34:27.433Z,2.10
2019-03-01T11:36:56.601Z,2.10
2019-03-01T11:39:31.217Z,1.97
2019-03-01T11:41:59.926Z,2.33
2019-03-01T11:44:30.396Z,2.40
2019-03-01T11:46:58.829Z,2.33
2019-03-01T11:49:27.652Z,2.57
2019-03-01T11:51:56.400Z,2.70
2019-03-01T11:54:25.287Z,1.73
2019-03-01T11:56:54.501Z,2.17
2019-03-01T11:59:25.263Z,2.40
2019-03-01T12:01:53.989Z,2.70
2019-03-01T12:04:26.561Z,2.80
2019-03-01T12:06:56.072Z,2.07
2019-03-01T12:09:34.846Z,2.23
2019-03-01T12:12:03.399Z,1.90
2019-03-01T12:14:34.410Z,2.30
2019-03-01T12:17:06.300Z,2.50
2019-03-01T12:19:36.191Z,1.77
2019-03-01T12:22:16.928Z,1.90
2019-03-01T12:24:41.152Z,2.50
2019-03-01T12:27:14.314Z,2.07
2019-03-01T12:29:43.444Z,2.30
2019-03-01T12:32:18.125Z,2.37
2019-03-01T12:34:49.625Z,2.43
2019-03-01T12:37:18.670Z,2.30
2019-03-01T12:39:48.534Z,2.87
2019-03-01T12:42:16.829Z,2.17
2019-03-01T12:44:45.927Z,2.73
2019-03-01T12:47:34.100Z,2.30
2019-03-01T12:50:05.847Z,2.17
2019-03-01T12:52:34.194Z,1.97
2019-03-01T12:55:20.650Z,3.23
2019-03-01T12:57:52.401Z,2.00
2019-03-01T13:00:24.815Z,2.30
2019-03-01T13:03:44.698Z,2.30
2019-03-01T13:06:16.606Z,2.77
2019-03-01T13:08:52.414Z,2.17
2019-03-01T13:11:24.686Z,2.13
2019-03-01T13:13:56.594Z,2.20
2019-03-01T13:16:26.561Z,3.47
2019-03-01T13:19:01.805Z,2.27
2019-03-01T13:21:32.690Z,2.30
2019-03-01T13:24:02.072Z,2.53
2019-03-01T13:26:37.715Z,2.53
2019-03-01T13:29:13.270Z,2.30
2019-03-01T13:31:47.035Z,2.80
2019-03-01T13:34:15.466Z,3.33
2019-03-01T13:42:58.546Z,2.80
2019-03-01T13:45:29.852Z,3.13
2019-03-01T13:48:05.547Z,3.63
2019-03-01T13:50:41.546Z,3.60
2019-03-01T13:53:30.121Z,3.03
2019-03-01T13:56:00.246Z,2.83
2019-03-01T13:58:29.710Z,3.07
2019-03-01T14:00:58.385Z,2.73
2019-03-01T14:03:27.766Z,3.23
2019-03-01T14:05:56.724Z,3.10
2019-03-01T14:08:25.883Z,2.47
2019-03-01T14:14:15.515Z,3.90
2019-03-01T14:16:54.110Z,3.00
2019-03-01T14:19:29.847Z,3.00
2019-03-01T14:22:01.291Z,3.10
2019-03-01T14:24:30.538Z,2.60
2019-03-01T14:27:01.483Z,3.50
2019-03-01T14:29:34.832Z,4.10
2019-03-01T14:32:02.947Z,2.67
2019-03-01T14:34:32.094Z,3.60
2019-03-01T14:37:00.658Z,3.03
2019-03-01T14:39:29.281Z,3.23
2019-03-01T14:42:01.085Z,3.80
2019-03-01T14:44:30.736Z,3.47
2019-03-01T14:46:59.679Z,3.40
2019-03-01T14:49:31.546Z,4.20
2019-03-01T14:52:03.446Z,3.80
2019-03-01T14:54:32.719Z,3.77
2019-03-01T14:57:17.581Z,3.60
2019-03-01T15:00:32.184Z,3.33
2019-03-01T15:03:26.626Z,3.70
2019-03-01T15:06:00.693Z,3.20
2019-03-01T15:08:30.991Z,3.47
2019-03-01T15:11:04.307Z,4.30
2019-03-01T15:13:34.699Z,4.03
2019-03-01T15:16:05.884Z,3.63
2019-03-01T15:18:33.982Z,4.67
2019-03-01T15:21:02.773Z,4.30
2019-03-01T15:23:33.034Z,4.20
2019-03-01T15:26:02.166Z,4.13
2019-03-01T15:28:55.885Z,3.93
2019-03-01T15:31:24.809Z,4.20
2019-03-01T15:33:54.200Z,3.67
2019-03-01T15:36:23.628Z,3.83
2019-03-01T15:39:08.394Z,4.57
2019-03-01T15:41:43.060Z,3.20
2019-03-01T15:44:19.455Z,3.77
2019-03-01T15:46:57.314Z,3.37
2019-03-01T15:49:26.462Z,3.80
2019-03-01T15:51:57.866Z,3.90
2019-03-01T15:54:46.294Z,3.67
2019-03-01T15:57:18.960Z,4.47
2019-03-01T15:59:48.931Z,3.23
2019-03-01T16:02:26.043Z,3.40
2019-03-01T16:04:56.310Z,3.53
2019-03-01T16:07:24.064Z,3.33
2019-03-01T16:09:51.714Z,3.70
2019-03-01T16:12:20.483Z,3.40
2019-03-01T16:14:52.307Z,3.27
2019-03-01T16:17:24.617Z,3.27
2019-03-01T16:20:17.618Z,3.90
2019-03-01T16:28:54.171Z,4.23
2019-03-01T16:31:22.220Z,3.87
2019-03-01T16:33:50.992Z,3.90
2019-03-01T16:36:32.087Z,4.57
2019-03-01T16:39:02.700Z,3.63
2019-03-01T16:41:31.183Z,4.40
2019-03-01T16:44:01.323Z,3.43
2019-03-01T16:46:31.417Z,3.40
2019-03-01T16:49:00.175Z,4.13
2019-03-01T16:51:30.860Z,3.63
2019-03-01T16:53:58.536Z,3.63
2019-03-01T16:56:26.989Z,4.43
2019-03-01T16:58:54.845Z,3.60
2019-03-01T17:01:31.920Z,3.80
2019-03-01T17:04:00.620Z,3.93
2019-03-01T17:06:28.861Z,3.83
2019-03-01T17:09:06.692Z,3.63
2019-03-01T17:11:37.616Z,3.17
2019-03-01T17:14:07.891Z,3.73
2019-03-01T17:16:36.676Z,5.00
2019-03-01T17:19:07.776Z,3.10
2019-03-01T17:21:37.136Z,3.47
2019-03-01T17:37:16.323Z,4.17
2019-03-01T17:39:44.842Z,4.07
2019-03-01T17:42:20.730Z,3.53
2019-03-01T17:44:50.047Z,4.00
2019-03-01T17:47:31.883Z,4.77
2019-03-01T17:50:05.433Z,3.47
2019-03-01T17:52:33.773Z,3.57
2019-03-01T17:55:08.270Z,4.10
2019-03-01T17:59:51.908Z,3.30
2019-03-01T18:00:47.947Z,4.00
2019-03-01T18:06:35.451Z,4.40
2019-03-01T18:09:13.324Z,3.80
2019-03-01T18:11:49.531Z,3.90
2019-03-01T18:14:21.359Z,4.57
2019-03-01T18:16:52.795Z,4.17
2019-03-01T18:19:33.605Z,3.87
2019-03-01T18:22:15.758Z,3.53
2019-03-01T18:24:50.788Z,3.23
2019-03-01T18:31:09.165Z,3.77
2019-03-01T18:33:44.774Z,3.40
2019-03-01T18:36:31.509Z,3.83
2019-03-01T18:56:04.948Z,3.90
2019-03-01T18:58:34.203Z,3.63
2019-03-01T19:09:29.605Z,3.70
2019-03-01T19:12:33.455Z,3.33
2019-03-01T19:16:18.177Z,3.07
2019-03-01T19:19:06.475Z,3.47
2019-03-01T19:22:07.625Z,2.97
2019-03-01T19:24:53.104Z,3.47
2019-03-01T19:27:26.022Z,3.47
2019-03-01T19:29:58.087Z,3.17
2019-03-01T19:33:08.773Z,3.07
2019-03-01T19:35:28.287Z,2.73
2019-03-01T19:37:54.701Z,2.60
2019-03-01T19:40:26.828Z,3.37
2019-03-01T19:43:01.524Z,7.37
2019-03-01T19:45:30.575Z,3.77
2019-03-01T19:49:09.379Z,2.97
2019-03-01T19:51:51.755Z,3.43
2019-03-01T19:54:20.609Z,4.13
2019-03-01T19:57:15.419Z,3.07
2019-03-01T20:00:13.951Z,3.13
2019-03-01T20:06:32.366Z,3.13
2019-03-01T20:09:14.576Z,3.80
2019-03-01T20:12:08.145Z,3.63
2019-03-01T20:14:38.247Z,4.23
2019-03-01T20:20:12.744Z,2.70
2019-03-01T20:22:55.252Z,2.97
2019-03-01T20:25:22.600Z,2.90
2019-03-01T20:28:37.357Z,3.07
2019-03-01T20:31:05.798Z,3.17
2019-03-01T20:33:36.461Z,2.77
2019-03-01T20:36:08.165Z,2.80
2019-03-01T20:38:39.672Z,3.17
2019-03-01T20:41:07.829Z,2.40
2019-03-01T20:47:23.231Z,3.70
2019-03-01T20:49:51.152Z,2.87
2019-03-01T20:52:23.995Z,2.47
2019-03-01T20:55:36.945Z,2.67
2019-03-01T20:58:07.602Z,2.87
2019-03-01T21:01:37.357Z,2.90
2019-03-01T21:03:53.587Z,2.90
2019-03-01T21:06:24.295Z,3.13
2019-03-01T21:08:53.799Z,3.57
2019-03-01T21:11:21.752Z,3.63
2019-03-01T21:14:10.225Z,3.10
2019-03-01T21:16:58.330Z,2.70
2019-03-01T21:19:27.502Z,2.67
2019-03-01T21:22:09.320Z,3.43
2019-03-01T21:24:42.693Z,3.07
2019-03-01T21:27:16.765Z,3.90
2019-03-01T21:29:47.591Z,3.30
2019-03-01T21:32:30.998Z,4.73
2019-03-01T21:36:02.386Z,3.20
2019-03-01T21:42:06.821Z,3.13
2019-03-01T21:45:23.713Z,2.87
2019-03-01T21:47:52.094Z,3.10
2019-03-01T21:50:20.266Z,3.27
2019-03-01T21:52:48.855Z,2.77
2019-03-01T21:55:30.732Z,3.40
2019-03-01T22:02:10.199Z,3.10
2019-03-01T22:05:10.331Z,2.60
2019-03-01T22:11:13.546Z,3.13
2019-03-01T22:13:42.709Z,3.40
2019-03-01T22:16:11.533Z,2.63
2019-03-01T22:19:21.913Z,2.83
2019-03-01T22:25:30.762Z,3.17
2019-03-01T22:28:09.784Z,2.83
2019-03-01T22:30:38.514Z,3.10
2019-03-01T22:33:11.493Z,3.50
2019-03-01T22:35:40.473Z,3.30
2019-03-01T22:38:41.448Z,3.50
2019-03-01T22:41:11.848Z,2.67
2019-03-01T22:43:43.944Z,2.63
2019-03-01T22:46:13.354Z,2.90
2019-03-01T22:48:46.947Z,2.67
2019-03-01T22:51:17.951Z,2.50
2019-03-01T22:53:48.577Z,3.40
2019-03-01T22:56:18.043Z,3.37
2019-03-01T22:58:46.978Z,2.90
2019-03-01T23:01:29.610Z,3.43
2019-03-01T23:04:00.266Z,3.60
2019-03-01T23:06:29.713Z,2.80
2019-03-01T23:09:00.199Z,3.80
2019-03-01T23:11:32.413Z,3.03
2019-03-01T23:14:05.959Z,2.57
2019-03-01T23:16:36.439Z,3.17
2019-03-01T23:19:05.560Z,2.97
2019-03-01T23:21:35.909Z,2.77
2019-03-01T23:24:05.592Z,2.63
2019-03-01T23:26:38.306Z,3.87
2019-03-01T23:29:07.396Z,3.33
2019-03-01T23:31:40.697Z,3.27
2019-03-01T23:34:09.956Z,4.33
2019-03-01T23:36:43.600Z,3.77
2019-03-01T23:39:14.794Z,4.07
2019-03-01T23:41:46.268Z,4.03
2019-03-01T23:44:15.975Z,4.60
2019-03-01T23:46:46.666Z,4.60
2019-03-01T23:49:15.857Z,5.40
2019-03-01T23:51:45.362Z,4.57
2019-03-01T23:54:14.548Z,4.77
2019-03-01T23:56:43.802Z,5.03
2019-03-01T23:59:12.549Z,4.97
